Terminal Aerodrome Forecast
Issued by NWS Melbourne, FL

Home | Current Version | Previous Version | Text Only | Print | Product List | Glossary On
Versions: 1 2 3 4 5 6 7 8 9 10 11 12 13 14 15 16 17 18 19 20 21
000
FTUS42 KMLB 302326
TAFMLB
TAF
KMLB 302326Z 0100/0124 13009KT P6SM VCSH FEW060 FEW110 SCT250
     FM010200 28004KT P6SM FEW040 SCT250
     FM011400 25007KT P6SM FEW030 SCT250
     FM011730 12009KT P6SM SCT030 SCT250=

USA.gov is the U.S. government's official web portal to all federal, state and local government web resources and services.